LTFJLTCN

Guest
Details From LTFJ - SABIHA GOKCEN
To LTCN - KAHRAMANMARAS
Flight Number -
Tags generated
Created
Modified
Stats Distance 417 nm / 772 km
Max Altitude 35,000 ft / 10,668 m
Waypoints 9
Social Downloads 0
Likes 0
Share VATSIM

Download

Looking for another format? Having issues loading an existing format? Contact us
Advertisement - Login to hide

Notes

Basic altitude profile: - Ascent Rate: 2500ft/min - Ascent Speed: 250kts - Cruise Altitude: 35000ft - Cruise Speed: 420kts - Descent Rate: 1500ft/min - Descent Speed: 250kts Options: - Use NATs: yes - Use PACOTS: yes - Use low airways: no - Use high airways: yes

Route

LTFJ TOKER UG8 BAG UA17 ERHAN LTCN

ID Type Via Altitude Latitude Longitude Leg Dist Tot Dist Heading (true) Name
O LTFJ APT - 0 ft / 0 m 40.89855˚ 29.30922˚ - 0 nm - SABIHA GOKCEN
TOKER FIX - 25,900 ft / 7,894 m 40.31333˚ 30.77222˚ 75 nm 75 nm 117° / 118° -
PETAR FIX UG8 (AWY-HI) 35,000 ft / 10,668 m 40.17222˚ 32.08194˚ 60 nm 136 nm 98° / 98° -
BAG VOR UG8 (AWY-HI) 35,000 ft / 10,668 m 40.06953˚ 32.81039˚ 34 nm 170 nm 100° / 101° BAGLUM VOR-DME
YUCEL FIX UA17 (AWY-HI) 35,000 ft / 10,668 m 39.58000˚ 33.58584˚ 46 nm 216 nm 129° / 130° -
BELSU FIX UA17 (AWY-HI) 33,800 ft / 10,302 m 39.13083˚ 34.28639˚ 42 nm 258 nm 129° / 130° -
KISLA FIX UA17 (AWY-HI) 33,300 ft / 10,150 m 39.11000˚ 34.33333˚ 2 nm 261 nm 120° / 120° -
ERHAN FIX UA17 (AWY-HI) 27,500 ft / 8,382 m 38.52389˚ 35.22889˚ 54 nm 315 nm 130° / 130° -
O LTCN APT - 0 ft / 0 m 37.53897˚ 36.95341˚ 100 nm 416 nm 125° / 126° KAHRAMANMARAS

Altitude Profile

Advertisement - Login to hide

Weather


0- 5 10 15 20 25 30 35+ Temperature / ° C

Clouds and Precipitation
Forecast for 2017-12-11 18:00 UTC. Updated 35 minutes ago

Ground ~20,000 ft ~40,000 ft Winds

LTFJ

Details ICAO LTFJ (SAW)
Name SABIHA GOKCEN
Region Turkey
Timezone Europe/Istanbul (UTC+3.0)
Stats Elevation 312 ft / 95 m (AMSL)
Location 40.898552° 29.309221°
Runways 1
Magnetic Variation 5.473° E

METAR

LTFJ 111320Z 22012KT CAVOK 15/09 Q1021 NOSIG RMK RWY24 22010KT

Decode

TAF

Not found

Departure Runways

ID Width Length Bearing (true) Bearing (mag) Surface Threshold Offset Overrun Length
06 148 ft / 45 m 9,690 ft / 2,953 m 64.01° 58.54° Concrete 0 ft / 0 m 197 ft / 60 m
24 148 ft / 45 m 9,690 ft / 2,953 m 244.03° 238.56° Concrete 0 ft / 0 m 197 ft / 60 m

LTCN

Details ICAO LTCN (KCM)
Name KAHRAMANMARAS
Region Turkey
Timezone Europe/Istanbul (UTC+3.0)
Stats Elevation 1,723 ft / 525 m (AMSL)
Location 37.538967° 36.953411°
Runways 1
Magnetic Variation 5.504° E

METAR

LTCN 111250Z VRB02KT CAVOK 13/01 Q1026 NOSIG

Decode

TAF

Not found

Destination Runways

ID Width Length Bearing (true) Bearing (mag) Surface Threshold Offset Overrun Length
08 98 ft / 30 m 7,533 ft / 2,296 m 75.46° 69.96° Asphalt 0 ft / 0 m 196 ft / 60 m
26 98 ft / 30 m 7,533 ft / 2,296 m 255.48° 249.98° Asphalt 984 ft / 300 m 196 ft / 60 m

Popular Alternatives